sensor_id;sensor_type;location;lat;lon;timestamp;temperature;humidity
3350;DHT22;1688;51.000;13.684;2024-03-29T00:01:50;9.30;99.90
3350;DHT22;1688;51.000;13.684;2024-03-29T00:04:19;9.30;99.90
3350;DHT22;1688;51.000;13.684;2024-03-29T00:06:49;9.30;99.90
3350;DHT22;1688;51.000;13.684;2024-03-29T00:09:18;9.30;99.90
3350;DHT22;1688;51.000;13.684;2024-03-29T00:11:48;9.30;99.90
3350;DHT22;1688;51.000;13.684;2024-03-29T00:14:17;9.30;99.90
3350;DHT22;1688;51.000;13.684;2024-03-29T00:16:47;9.30;99.90
3350;DHT22;1688;51.000;13.684;2024-03-29T00:19:16;9.30;99.90
3350;DHT22;1688;51.000;13.684;2024-03-29T00:21:46;9.30;99.90
3350;DHT22;1688;51.000;13.684;2024-03-29T00:24:15;9.30;99.90
3350;DHT22;1688;51.000;13.684;2024-03-29T00:26:45;9.30;99.90
3350;DHT22;1688;51.000;13.684;2024-03-29T00:29:14;9.30;99.90
3350;DHT22;1688;51.000;13.684;2024-03-29T00:31:44;9.30;99.90
3350;DHT22;1688;51.000;13.684;2024-03-29T00:34:14;9.40;99.90
3350;DHT22;1688;51.000;13.684;2024-03-29T00:36:44;9.40;99.90
3350;DHT22;1688;51.000;13.684;2024-03-29T00:39:13;9.40;99.90
3350;DHT22;1688;51.000;13.684;2024-03-29T00:41:43;9.40;99.90
3350;DHT22;1688;51.000;13.684;2024-03-29T00:44:12;9.40;99.90
3350;DHT22;1688;51.000;13.684;2024-03-29T00:46:42;9.30;99.90
3350;DHT22;1688;51.000;13.684;2024-03-29T00:49:11;9.30;99.90
3350;DHT22;1688;51.000;13.684;2024-03-29T00:51:41;9.30;99.90
3350;DHT22;1688;51.000;13.684;2024-03-29T00:54:10;9.30;99.90
3350;DHT22;1688;51.000;13.684;2024-03-29T00:56:40;9.40;99.90
3350;DHT22;1688;51.000;13.684;2024-03-29T00:59:09;9.30;99.90
3350;DHT22;1688;51.000;13.684;2024-03-29T01:01:39;9.40;99.90
3350;DHT22;1688;51.000;13.684;2024-03-29T01:04:08;9.40;99.90
3350;DHT22;1688;51.000;13.684;2024-03-29T01:06:38;9.40;99.90
3350;DHT22;1688;51.000;13.684;2024-03-29T01:09:08;9.40;99.90
3350;DHT22;1688;51.000;13.684;2024-03-29T01:11:40;9.50;99.90
3350;DHT22;1688;51.000;13.684;2024-03-29T01:14:10;9.50;99.90
3350;DHT22;1688;51.000;13.684;2024-03-29T01:16:39;9.40;99.90
3350;DHT22;1688;51.000;13.684;2024-03-29T01:19:09;9.40;99.90
3350;DHT22;1688;51.000;13.684;2024-03-29T01:21:39;9.40;99.90
3350;DHT22;1688;51.000;13.684;2024-03-29T01:24:09;9.40;99.90
3350;DHT22;1688;51.000;13.684;2024-03-29T01:26:39;9.30;99.90
3350;DHT22;1688;51.000;13.684;2024-03-29T01:29:08;9.30;99.90
3350;DHT22;1688;51.000;13.684;2024-03-29T01:31:38;9.40;99.90
3350;DHT22;1688;51.000;13.684;2024-03-29T01:34:07;9.30;99.90
3350;DHT22;1688;51.000;13.684;2024-03-29T01:36:37;9.30;99.90
3350;DHT22;1688;51.000;13.684;2024-03-29T01:39:06;9.20;99.90
3350;DHT22;1688;51.000;13.684;2024-03-29T01:41:37;9.20;99.90
3350;DHT22;1688;51.000;13.684;2024-03-29T01:44:07;9.30;99.90
3350;DHT22;1688;51.000;13.684;2024-03-29T01:46:37;9.30;99.90
3350;DHT22;1688;51.000;13.684;2024-03-29T01:49:06;9.40;99.90
3350;DHT22;1688;51.000;13.684;2024-03-29T01:51:37;9.40;99.90
3350;DHT22;1688;51.000;13.684;2024-03-29T01:54:10;9.40;99.90
3350;DHT22;1688;51.000;13.684;2024-03-29T01:56:41;9.40;99.90
3350;DHT22;1688;51.000;13.684;2024-03-29T01:59:14;9.40;99.90
3350;DHT22;1688;51.000;13.684;2024-03-29T02:01:45;9.40;99.90
3350;DHT22;1688;51.000;13.684;2024-03-29T02:04:15;9.40;99.90
3350;DHT22;1688;51.000;13.684;2024-03-29T02:06:45;9.40;99.90
3350;DHT22;1688;51.000;13.684;2024-03-29T02:09:14;9.40;99.90
3350;DHT22;1688;51.000;13.684;2024-03-29T02:11:44;9.40;99.90
3350;DHT22;1688;51.000;13.684;2024-03-29T02:14:13;9.40;99.90
3350;DHT22;1688;51.000;13.684;2024-03-29T02:16:43;9.40;99.90
3350;DHT22;1688;51.000;13.684;2024-03-29T02:19:13;9.30;99.90
3350;DHT22;1688;51.000;13.684;2024-03-29T02:21:45;9.30;99.90
3350;DHT22;1688;51.000;13.684;2024-03-29T02:24:16;9.30;99.90
3350;DHT22;1688;51.000;13.684;2024-03-29T02:26:47;9.30;99.90
3350;DHT22;1688;51.000;13.684;2024-03-29T02:29:17;9.30;99.90
3350;DHT22;1688;51.000;13.684;2024-03-29T02:31:46;9.30;99.90
3350;DHT22;1688;51.000;13.684;2024-03-29T02:34:16;9.30;99.90
3350;DHT22;1688;51.000;13.684;2024-03-29T02:36:45;9.30;99.90
3350;DHT22;1688;51.000;13.684;2024-03-29T02:39:15;9.30;99.90
3350;DHT22;1688;51.000;13.684;2024-03-29T02:41:45;9.30;99.90
3350;DHT22;1688;51.000;13.684;2024-03-29T02:44:14;9.30;99.90
3350;DHT22;1688;51.000;13.684;2024-03-29T02:46:45;9.30;99.90
3350;DHT22;1688;51.000;13.684;2024-03-29T02:49:14;9.20;99.90
3350;DHT22;1688;51.000;13.684;2024-03-29T02:51:44;9.20;99.90
3350;DHT22;1688;51.000;13.684;2024-03-29T02:54:14;9.30;99.90
3350;DHT22;1688;51.000;13.684;2024-03-29T02:56:43;9.30;99.90
3350;DHT22;1688;51.000;13.684;2024-03-29T02:59:13;9.20;99.90
3350;DHT22;1688;51.000;13.684;2024-03-29T03:01:42;9.20;99.90
3350;DHT22;1688;51.000;13.684;2024-03-29T03:04:12;9.20;99.90
3350;DHT22;1688;51.000;13.684;2024-03-29T03:06:41;9.20;99.90
3350;DHT22;1688;51.000;13.684;2024-03-29T03:09:12;9.10;99.90
3350;DHT22;1688;51.000;13.684;2024-03-29T03:15:32;9.10;99.90
3350;DHT22;1688;51.000;13.684;2024-03-29T03:18:02;9.10;99.90
3350;DHT22;1688;51.000;13.684;2024-03-29T03:20:31;9.20;99.90
3350;DHT22;1688;51.000;13.684;2024-03-29T03:23:02;9.20;99.90
3350;DHT22;1688;51.000;13.684;2024-03-29T03:25:32;9.20;99.90
3350;DHT22;1688;51.000;13.684;2024-03-29T03:28:02;9.20;99.90
3350;DHT22;1688;51.000;13.684;2024-03-29T03:30:32;9.10;99.90
3350;DHT22;1688;51.000;13.684;2024-03-29T03:33:01;9.20;99.90
3350;DHT22;1688;51.000;13.684;2024-03-29T03:35:31;9.20;99.90
3350;DHT22;1688;51.000;13.684;2024-03-29T03:38:00;9.10;99.90
3350;DHT22;1688;51.000;13.684;2024-03-29T03:40:30;9.10;99.90
3350;DHT22;1688;51.000;13.684;2024-03-29T03:43:00;9.10;99.90
3350;DHT22;1688;51.000;13.684;2024-03-29T03:45:40;9.10;99.90
3350;DHT22;1688;51.000;13.684;2024-03-29T03:48:10;9.10;99.90
3350;DHT22;1688;51.000;13.684;2024-03-29T03:50:40;9.00;99.90
3350;DHT22;1688;51.000;13.684;2024-03-29T03:53:10;9.00;99.90
3350;DHT22;1688;51.000;13.684;2024-03-29T03:55:40;9.00;99.90
3350;DHT22;1688;51.000;13.684;2024-03-29T03:58:10;9.00;99.90
3350;DHT22;1688;51.000;13.684;2024-03-29T04:00:39;9.00;99.90
3350;DHT22;1688;51.000;13.684;2024-03-29T04:03:09;9.00;99.90
3350;DHT22;1688;51.000;13.684;2024-03-29T04:05:39;9.00;99.90
3350;DHT22;1688;51.000;13.684;2024-03-29T04:08:09;9.00;99.90
3350;DHT22;1688;51.000;13.684;2024-03-29T04:10:38;9.00;99.90
3350;DHT22;1688;51.000;13.684;2024-03-29T04:13:08;9.00;99.90
3350;DHT22;1688;51.000;13.684;2024-03-29T04:15:38;9.00;99.90
3350;DHT22;1688;51.000;13.684;2024-03-29T04:18:07;9.00;99.90
3350;DHT22;1688;51.000;13.684;2024-03-29T04:20:37;9.00;99.90
3350;DHT22;1688;51.000;13.684;2024-03-29T04:23:06;9.10;99.90
3350;DHT22;1688;51.000;13.684;2024-03-29T04:25:36;9.10;99.90
3350;DHT22;1688;51.000;13.684;2024-03-29T04:28:06;9.20;99.90
3350;DHT22;1688;51.000;13.684;2024-03-29T04:30:35;9.20;99.90
3350;DHT22;1688;51.000;13.684;2024-03-29T04:33:05;9.20;99.90
3350;DHT22;1688;51.000;13.684;2024-03-29T04:35:34;9.20;99.90
3350;DHT22;1688;51.000;13.684;2024-03-29T04:38:04;9.20;99.90
3350;DHT22;1688;51.000;13.684;2024-03-29T04:40:33;9.20;99.90
3350;DHT22;1688;51.000;13.684;2024-03-29T04:43:03;9.20;99.90
3350;DHT22;1688;51.000;13.684;2024-03-29T04:45:32;9.20;99.90
3350;DHT22;1688;51.000;13.684;2024-03-29T04:48:02;9.20;99.90
3350;DHT22;1688;51.000;13.684;2024-03-29T04:50:32;9.20;99.90
3350;DHT22;1688;51.000;13.684;2024-03-29T04:53:01;9.20;99.90
3350;DHT22;1688;51.000;13.684;2024-03-29T04:55:31;9.20;99.90
3350;DHT22;1688;51.000;13.684;2024-03-29T04:58:01;9.20;99.90
3350;DHT22;1688;51.000;13.684;2024-03-29T05:00:31;9.20;99.90
3350;DHT22;1688;51.000;13.684;2024-03-29T05:03:00;9.30;99.90
3350;DHT22;1688;51.000;13.684;2024-03-29T05:05:30;9.30;99.90
3350;DHT22;1688;51.000;13.684;2024-03-29T05:08:00;9.40;99.90
3350;DHT22;1688;51.000;13.684;2024-03-29T05:10:29;9.50;99.90
3350;DHT22;1688;51.000;13.684;2024-03-29T05:12:59;9.50;99.90
3350;DHT22;1688;51.000;13.684;2024-03-29T05:15:28;9.60;99.90
3350;DHT22;1688;51.000;13.684;2024-03-29T05:17:58;9.70;99.90
3350;DHT22;1688;51.000;13.684;2024-03-29T05:20:28;9.80;99.90
3350;DHT22;1688;51.000;13.684;2024-03-29T05:23:00;9.80;99.90
3350;DHT22;1688;51.000;13.684;2024-03-29T05:25:30;9.90;99.90
3350;DHT22;1688;51.000;13.684;2024-03-29T05:28:00;10.00;99.90
3350;DHT22;1688;51.000;13.684;2024-03-29T05:30:31;10.10;99.90
3350;DHT22;1688;51.000;13.684;2024-03-29T05:33:00;10.10;99.90
3350;DHT22;1688;51.000;13.684;2024-03-29T05:35:30;10.20;99.90
3350;DHT22;1688;51.000;13.684;2024-03-29T05:38:00;10.30;99.90
3350;DHT22;1688;51.000;13.684;2024-03-29T05:40:29;10.30;99.90
3350;DHT22;1688;51.000;13.684;2024-03-29T05:42:59;10.30;99.90
3350;DHT22;1688;51.000;13.684;2024-03-29T05:45:29;10.30;99.90
3350;DHT22;1688;51.000;13.684;2024-03-29T05:47:59;10.30;99.90
3350;DHT22;1688;51.000;13.684;2024-03-29T05:50:29;10.10;99.90
3350;DHT22;1688;51.000;13.684;2024-03-29T05:52:58;10.10;99.90
3350;DHT22;1688;51.000;13.684;2024-03-29T05:55:30;10.00;99.90
3350;DHT22;1688;51.000;13.684;2024-03-29T05:57:59;10.00;99.90
3350;DHT22;1688;51.000;13.684;2024-03-29T06:00:29;10.00;99.90
3350;DHT22;1688;51.000;13.684;2024-03-29T06:02:59;10.00;99.90
3350;DHT22;1688;51.000;13.684;2024-03-29T06:05:29;10.00;99.90
3350;DHT22;1688;51.000;13.684;2024-03-29T06:07:58;10.10;99.90
3350;DHT22;1688;51.000;13.684;2024-03-29T06:10:28;10.10;99.90
3350;DHT22;1688;51.000;13.684;2024-03-29T06:12:57;10.10;99.90
3350;DHT22;1688;51.000;13.684;2024-03-29T06:15:36;10.20;99.90
3350;DHT22;1688;51.000;13.684;2024-03-29T06:18:24;10.30;99.90
3350;DHT22;1688;51.000;13.684;2024-03-29T06:20:54;10.20;99.90
3350;DHT22;1688;51.000;13.684;2024-03-29T06:23:23;10.30;99.90
3350;DHT22;1688;51.000;13.684;2024-03-29T06:25:53;10.30;99.90
3350;DHT22;1688;51.000;13.684;2024-03-29T06:28:22;10.20;99.90
3350;DHT22;1688;51.000;13.684;2024-03-29T06:30:52;10.20;99.90
3350;DHT22;1688;51.000;13.684;2024-03-29T06:33:21;10.20;99.90
3350;DHT22;1688;51.000;13.684;2024-03-29T06:35:57;10.20;99.90
3350;DHT22;1688;51.000;13.684;2024-03-29T06:38:26;10.10;99.90
3350;DHT22;1688;51.000;13.684;2024-03-29T06:40:56;10.10;99.90
3350;DHT22;1688;51.000;13.684;2024-03-29T06:43:25;10.10;99.90
3350;DHT22;1688;51.000;13.684;2024-03-29T06:45:55;10.10;99.90
3350;DHT22;1688;51.000;13.684;2024-03-29T06:48:25;10.10;99.90
3350;DHT22;1688;51.000;13.684;2024-03-29T06:50:55;10.10;99.90
3350;DHT22;1688;51.000;13.684;2024-03-29T06:53:25;10.10;99.90
3350;DHT22;1688;51.000;13.684;2024-03-29T06:55:55;10.00;99.90
3350;DHT22;1688;51.000;13.684;2024-03-29T06:58:25;10.00;99.90
3350;DHT22;1688;51.000;13.684;2024-03-29T07:00:55;10.10;99.90
3350;DHT22;1688;51.000;13.684;2024-03-29T07:03:24;10.10;99.90
3350;DHT22;1688;51.000;13.684;2024-03-29T07:05:54;10.10;99.90
3350;DHT22;1688;51.000;13.684;2024-03-29T07:08:23;10.20;99.90
3350;DHT22;1688;51.000;13.684;2024-03-29T07:11:00;10.20;99.90
3350;DHT22;1688;51.000;13.684;2024-03-29T07:13:31;10.20;99.90
3350;DHT22;1688;51.000;13.684;2024-03-29T07:16:01;10.20;99.90
3350;DHT22;1688;51.000;13.684;2024-03-29T07:18:31;10.20;99.90
3350;DHT22;1688;51.000;13.684;2024-03-29T07:21:01;10.20;99.90
3350;DHT22;1688;51.000;13.684;2024-03-29T07:23:30;10.20;99.90
3350;DHT22;1688;51.000;13.684;2024-03-29T07:26:04;10.30;99.90
3350;DHT22;1688;51.000;13.684;2024-03-29T07:28:34;10.30;99.90
3350;DHT22;1688;51.000;13.684;2024-03-29T07:31:07;10.40;99.90
3350;DHT22;1688;51.000;13.684;2024-03-29T07:33:37;10.50;99.90
3350;DHT22;1688;51.000;13.684;2024-03-29T07:36:07;10.60;99.90
3350;DHT22;1688;51.000;13.684;2024-03-29T07:38:39;10.70;99.90
3350;DHT22;1688;51.000;13.684;2024-03-29T07:41:11;10.80;99.90
3350;DHT22;1688;51.000;13.684;2024-03-29T07:43:53;10.90;99.70
3350;DHT22;1688;51.000;13.684;2024-03-29T07:46:36;11.10;99.30
3350;DHT22;1688;51.000;13.684;2024-03-29T07:49:09;11.20;99.00
3350;DHT22;1688;51.000;13.684;2024-03-29T07:51:38;11.30;98.20
3350;DHT22;1688;51.000;13.684;2024-03-29T07:54:08;11.30;98.90
3350;DHT22;1688;51.000;13.684;2024-03-29T07:56:38;11.40;98.20
3350;DHT22;1688;51.000;13.684;2024-03-29T07:59:07;11.50;98.00
3350;DHT22;1688;51.000;13.684;2024-03-29T08:01:37;11.60;96.00
3350;DHT22;1688;51.000;13.684;2024-03-29T08:04:06;11.70;96.30
3350;DHT22;1688;51.000;13.684;2024-03-29T08:06:36;11.70;95.90
3350;DHT22;1688;51.000;13.684;2024-03-29T08:09:05;11.80;95.00
3350;DHT22;1688;51.000;13.684;2024-03-29T08:11:35;11.90;93.20
3350;DHT22;1688;51.000;13.684;2024-03-29T08:14:05;11.90;93.20
3350;DHT22;1688;51.000;13.684;2024-03-29T08:16:35;11.90;92.20
3350;DHT22;1688;51.000;13.684;2024-03-29T08:19:04;12.00;91.10
3350;DHT22;1688;51.000;13.684;2024-03-29T08:21:34;12.10;91.50
3350;DHT22;1688;51.000;13.684;2024-03-29T08:24:04;12.10;91.90
3350;DHT22;1688;51.000;13.684;2024-03-29T08:26:34;12.20;92.00
3350;DHT22;1688;51.000;13.684;2024-03-29T08:29:03;12.30;91.80
3350;DHT22;1688;51.000;13.684;2024-03-29T08:31:33;12.30;91.50
3350;DHT22;1688;51.000;13.684;2024-03-29T08:34:02;12.30;91.90
3350;DHT22;1688;51.000;13.684;2024-03-29T08:36:32;12.40;91.90
3350;DHT22;1688;51.000;13.684;2024-03-29T08:39:02;12.50;91.90
3350;DHT22;1688;51.000;13.684;2024-03-29T08:41:31;12.50;93.50
3350;DHT22;1688;51.000;13.684;2024-03-29T08:44:02;12.60;94.00
3350;DHT22;1688;51.000;13.684;2024-03-29T08:46:31;12.60;93.90
3350;DHT22;1688;51.000;13.684;2024-03-29T08:49:01;12.60;93.60
3350;DHT22;1688;51.000;13.684;2024-03-29T08:51:30;12.70;91.50
3350;DHT22;1688;51.000;13.684;2024-03-29T08:54:00;12.80;90.80
3350;DHT22;1688;51.000;13.684;2024-03-29T08:56:34;12.80;91.30
3350;DHT22;1688;51.000;13.684;2024-03-29T08:59:06;13.00;91.80
3350;DHT22;1688;51.000;13.684;2024-03-29T09:01:44;13.00;90.90
3350;DHT22;1688;51.000;13.684;2024-03-29T09:04:14;13.10;90.90
3350;DHT22;1688;51.000;13.684;2024-03-29T09:06:45;13.20;90.80
3350;DHT22;1688;51.000;13.684;2024-03-29T09:09:14;13.30;90.70
3350;DHT22;1688;51.000;13.684;2024-03-29T09:11:44;13.30;90.80
3350;DHT22;1688;51.000;13.684;2024-03-29T09:14:13;13.40;90.70
3350;DHT22;1688;51.000;13.684;2024-03-29T09:16:43;13.50;90.50
3350;DHT22;1688;51.000;13.684;2024-03-29T09:19:16;13.60;90.20
3350;DHT22;1688;51.000;13.684;2024-03-29T09:21:46;13.60;90.50
3350;DHT22;1688;51.000;13.684;2024-03-29T09:24:16;13.70;89.30
3350;DHT22;1688;51.000;13.684;2024-03-29T09:26:48;13.80;89.90
3350;DHT22;1688;51.000;13.684;2024-03-29T09:29:18;13.80;89.20
3350;DHT22;1688;51.000;13.684;2024-03-29T09:31:50;13.70;87.70
3350;DHT22;1688;51.000;13.684;2024-03-29T09:34:19;13.70;87.20
3350;DHT22;1688;51.000;13.684;2024-03-29T09:36:49;13.70;87.30
3350;DHT22;1688;51.000;13.684;2024-03-29T09:39:19;13.70;87.40
3350;DHT22;1688;51.000;13.684;2024-03-29T09:41:49;13.70;88.40
3350;DHT22;1688;51.000;13.684;2024-03-29T09:44:20;13.70;90.10
3350;DHT22;1688;51.000;13.684;2024-03-29T09:46:52;13.80;88.60
3350;DHT22;1688;51.000;13.684;2024-03-29T09:49:22;13.70;89.20
3350;DHT22;1688;51.000;13.684;2024-03-29T09:51:52;13.80;89.60
3350;DHT22;1688;51.000;13.684;2024-03-29T09:54:22;13.80;89.30
3350;DHT22;1688;51.000;13.684;2024-03-29T09:56:55;13.80;89.20
3350;DHT22;1688;51.000;13.684;2024-03-29T09:59:25;13.80;89.60
3350;DHT22;1688;51.000;13.684;2024-03-29T10:01:56;13.70;88.50
3350;DHT22;1688;51.000;13.684;2024-03-29T10:04:27;13.70;89.40
3350;DHT22;1688;51.000;13.684;2024-03-29T10:06:58;13.70;90.10
3350;DHT22;1688;51.000;13.684;2024-03-29T10:09:27;13.60;89.40
3350;DHT22;1688;51.000;13.684;2024-03-29T10:11:59;13.60;88.90
3350;DHT22;1688;51.000;13.684;2024-03-29T10:14:42;13.60;89.40
3350;DHT22;1688;51.000;13.684;2024-03-29T10:17:12;13.50;88.30
3350;DHT22;1688;51.000;13.684;2024-03-29T10:19:41;13.50;89.50
3350;DHT22;1688;51.000;13.684;2024-03-29T10:22:11;13.50;88.80
3350;DHT22;1688;51.000;13.684;2024-03-29T10:24:40;13.50;87.70
3350;DHT22;1688;51.000;13.684;2024-03-29T10:27:10;13.50;88.50
3350;DHT22;1688;51.000;13.684;2024-03-29T10:29:40;13.60;89.70
3350;DHT22;1688;51.000;13.684;2024-03-29T10:32:09;13.80;90.90
3350;DHT22;1688;51.000;13.684;2024-03-29T10:34:39;13.90;90.10
3350;DHT22;1688;51.000;13.684;2024-03-29T10:37:08;14.00;90.40
3350;DHT22;1688;51.000;13.684;2024-03-29T10:39:42;14.20;90.30
3350;DHT22;1688;51.000;13.684;2024-03-29T10:42:12;14.20;88.00
3350;DHT22;1688;51.000;13.684;2024-03-29T10:44:42;14.40;89.30
3350;DHT22;1688;51.000;13.684;2024-03-29T10:47:17;14.60;85.50
3350;DHT22;1688;51.000;13.684;2024-03-29T10:49:50;14.70;86.00
3350;DHT22;1688;51.000;13.684;2024-03-29T10:52:21;14.80;87.70
3350;DHT22;1688;51.000;13.684;2024-03-29T10:54:52;15.00;86.40
3350;DHT22;1688;51.000;13.684;2024-03-29T10:57:26;15.00;84.20
3350;DHT22;1688;51.000;13.684;2024-03-29T11:05:08;15.00;83.00
3350;DHT22;1688;51.000;13.684;2024-03-29T11:07:42;15.00;84.50
3350;DHT22;1688;51.000;13.684;2024-03-29T11:10:20;15.20;83.50
3350;DHT22;1688;51.000;13.684;2024-03-29T11:15:50;15.20;81.70
3350;DHT22;1688;51.000;13.684;2024-03-29T11:18:20;15.10;82.50
3350;DHT22;1688;51.000;13.684;2024-03-29T11:20:50;15.10;83.10
3350;DHT22;1688;51.000;13.684;2024-03-29T11:23:22;15.20;82.50
3350;DHT22;1688;51.000;13.684;2024-03-29T11:25:52;15.20;82.80
3350;DHT22;1688;51.000;13.684;2024-03-29T11:28:35;15.20;81.00
3350;DHT22;1688;51.000;13.684;2024-03-29T11:31:09;15.30;80.50
3350;DHT22;1688;51.000;13.684;2024-03-29T11:36:15;15.30;82.20
3350;DHT22;1688;51.000;13.684;2024-03-29T11:38:46;15.40;81.80
3350;DHT22;1688;51.000;13.684;2024-03-29T11:41:17;15.30;79.90
3350;DHT22;1688;51.000;13.684;2024-03-29T11:43:47;15.40;81.00
3350;DHT22;1688;51.000;13.684;2024-03-29T11:46:18;15.40;84.90
3350;DHT22;1688;51.000;13.684;2024-03-29T11:48:47;15.40;81.80
3350;DHT22;1688;51.000;13.684;2024-03-29T11:51:22;15.40;82.90
3350;DHT22;1688;51.000;13.684;2024-03-29T11:53:53;15.50;82.80
3350;DHT22;1688;51.000;13.684;2024-03-29T11:56:24;15.50;80.60
3350;DHT22;1688;51.000;13.684;2024-03-29T11:58:54;15.60;81.50
3350;DHT22;1688;51.000;13.684;2024-03-29T12:01:29;15.60;81.60
3350;DHT22;1688;51.000;13.684;2024-03-29T12:03:59;15.60;81.90
3350;DHT22;1688;51.000;13.684;2024-03-29T12:06:28;15.70;82.80
3350;DHT22;1688;51.000;13.684;2024-03-29T12:08:58;15.80;80.50
3350;DHT22;1688;51.000;13.684;2024-03-29T12:11:28;15.90;79.60
3350;DHT22;1688;51.000;13.684;2024-03-29T12:13:58;16.10;81.90
3350;DHT22;1688;51.000;13.684;2024-03-29T12:16:29;16.10;79.70
3350;DHT22;1688;51.000;13.684;2024-03-29T12:18:58;16.20;78.60
3350;DHT22;1688;51.000;13.684;2024-03-29T12:21:28;16.20;76.20
3350;DHT22;1688;51.000;13.684;2024-03-29T12:23:58;16.30;76.90
3350;DHT22;1688;51.000;13.684;2024-03-29T12:26:28;16.20;75.00
3350;DHT22;1688;51.000;13.684;2024-03-29T12:29:00;16.10;75.80
3350;DHT22;1688;51.000;13.684;2024-03-29T12:31:30;16.10;74.70
3350;DHT22;1688;51.000;13.684;2024-03-29T12:33:59;16.10;75.80
3350;DHT22;1688;51.000;13.684;2024-03-29T12:36:31;16.10;77.70
3350;DHT22;1688;51.000;13.684;2024-03-29T12:39:01;16.10;78.30
3350;DHT22;1688;51.000;13.684;2024-03-29T12:41:32;16.10;79.60
3350;DHT22;1688;51.000;13.684;2024-03-29T12:44:05;16.20;80.60
3350;DHT22;1688;51.000;13.684;2024-03-29T12:46:35;16.20;78.80
3350;DHT22;1688;51.000;13.684;2024-03-29T12:49:05;16.30;77.80
3350;DHT22;1688;51.000;13.684;2024-03-29T12:51:35;16.30;76.80
3350;DHT22;1688;51.000;13.684;2024-03-29T12:54:08;16.30;78.20
3350;DHT22;1688;51.000;13.684;2024-03-29T12:56:37;16.40;78.20
3350;DHT22;1688;51.000;13.684;2024-03-29T12:59:09;16.50;79.60
3350;DHT22;1688;51.000;13.684;2024-03-29T13:01:39;16.40;80.00
3350;DHT22;1688;51.000;13.684;2024-03-29T13:04:08;16.50;80.50
3350;DHT22;1688;51.000;13.684;2024-03-29T13:06:38;16.60;80.10
3350;DHT22;1688;51.000;13.684;2024-03-29T13:09:08;16.70;81.00
3350;DHT22;1688;51.000;13.684;2024-03-29T13:11:37;16.70;81.20
3350;DHT22;1688;51.000;13.684;2024-03-29T13:14:07;16.80;80.60
3350;DHT22;1688;51.000;13.684;2024-03-29T13:16:36;16.70;81.40
3350;DHT22;1688;51.000;13.684;2024-03-29T13:19:06;16.70;80.90
3350;DHT22;1688;51.000;13.684;2024-03-29T13:21:36;16.80;82.10
3350;DHT22;1688;51.000;13.684;2024-03-29T13:24:06;16.90;80.80
3350;DHT22;1688;51.000;13.684;2024-03-29T13:26:35;16.90;81.50
3350;DHT22;1688;51.000;13.684;2024-03-29T13:29:05;16.80;81.50
3350;DHT22;1688;51.000;13.684;2024-03-29T13:31:34;16.80;81.60
3350;DHT22;1688;51.000;13.684;2024-03-29T13:34:04;16.90;82.00
3350;DHT22;1688;51.000;13.684;2024-03-29T13:36:41;16.90;81.60
3350;DHT22;1688;51.000;13.684;2024-03-29T13:39:10;16.90;81.10
3350;DHT22;1688;51.000;13.684;2024-03-29T13:41:42;16.80;82.20
3350;DHT22;1688;51.000;13.684;2024-03-29T13:44:12;16.80;83.30
3350;DHT22;1688;51.000;13.684;2024-03-29T13:46:43;16.80;83.90
3350;DHT22;1688;51.000;13.684;2024-03-29T13:49:13;16.80;82.60
3350;DHT22;1688;51.000;13.684;2024-03-29T13:51:43;16.80;83.80
3350;DHT22;1688;51.000;13.684;2024-03-29T13:54:12;16.80;82.30
3350;DHT22;1688;51.000;13.684;2024-03-29T13:56:42;16.70;83.70
3350;DHT22;1688;51.000;13.684;2024-03-29T13:59:12;16.70;83.80
3350;DHT22;1688;51.000;13.684;2024-03-29T14:01:41;16.70;84.80
3350;DHT22;1688;51.000;13.684;2024-03-29T14:04:11;16.60;84.40
3350;DHT22;1688;51.000;13.684;2024-03-29T14:06:40;16.60;84.60
3350;DHT22;1688;51.000;13.684;2024-03-29T14:09:10;16.50;85.30
3350;DHT22;1688;51.000;13.684;2024-03-29T14:11:39;16.50;86.30
3350;DHT22;1688;51.000;13.684;2024-03-29T14:14:09;16.60;86.80
3350;DHT22;1688;51.000;13.684;2024-03-29T14:16:39;16.60;85.80
3350;DHT22;1688;51.000;13.684;2024-03-29T14:19:09;16.60;86.20
3350;DHT22;1688;51.000;13.684;2024-03-29T14:21:40;16.60;86.60
3350;DHT22;1688;51.000;13.684;2024-03-29T14:24:09;16.70;86.90
3350;DHT22;1688;51.000;13.684;2024-03-29T14:26:39;16.70;87.30
3350;DHT22;1688;51.000;13.684;2024-03-29T14:29:08;16.80;86.80
3350;DHT22;1688;51.000;13.684;2024-03-29T14:31:41;16.80;87.40
3350;DHT22;1688;51.000;13.684;2024-03-29T14:34:13;16.90;86.40
3350;DHT22;1688;51.000;13.684;2024-03-29T14:36:44;16.90;86.30
3350;DHT22;1688;51.000;13.684;2024-03-29T14:39:13;16.90;87.70
3350;DHT22;1688;51.000;13.684;2024-03-29T14:41:43;16.90;87.40
3350;DHT22;1688;51.000;13.684;2024-03-29T14:44:15;16.90;87.60
3350;DHT22;1688;51.000;13.684;2024-03-29T14:46:45;17.00;87.90
3350;DHT22;1688;51.000;13.684;2024-03-29T14:49:14;16.90;88.40
3350;DHT22;1688;51.000;13.684;2024-03-29T14:51:46;16.90;87.90
3350;DHT22;1688;51.000;13.684;2024-03-29T14:54:16;16.90;88.20
3350;DHT22;1688;51.000;13.684;2024-03-29T14:56:45;16.90;86.80
3350;DHT22;1688;51.000;13.684;2024-03-29T14:59:16;16.80;86.90
3350;DHT22;1688;51.000;13.684;2024-03-29T15:01:46;16.80;87.40
3350;DHT22;1688;51.000;13.684;2024-03-29T15:04:17;16.70;88.40
3350;DHT22;1688;51.000;13.684;2024-03-29T15:06:46;16.80;88.70
3350;DHT22;1688;51.000;13.684;2024-03-29T15:09:18;16.80;88.20
3350;DHT22;1688;51.000;13.684;2024-03-29T15:11:48;16.80;88.20
3350;DHT22;1688;51.000;13.684;2024-03-29T15:14:17;16.70;88.20
3350;DHT22;1688;51.000;13.684;2024-03-29T15:16:47;16.70;87.60
3350;DHT22;1688;51.000;13.684;2024-03-29T15:19:18;16.70;88.10
3350;DHT22;1688;51.000;13.684;2024-03-29T15:21:48;16.70;87.80
3350;DHT22;1688;51.000;13.684;2024-03-29T15:24:18;16.80;88.70
3350;DHT22;1688;51.000;13.684;2024-03-29T15:26:48;16.80;87.50
3350;DHT22;1688;51.000;13.684;2024-03-29T15:29:19;16.80;87.30
3350;DHT22;1688;51.000;13.684;2024-03-29T15:31:49;16.80;86.60
3350;DHT22;1688;51.000;13.684;2024-03-29T15:34:18;16.80;86.20
3350;DHT22;1688;51.000;13.684;2024-03-29T15:36:48;16.80;85.60
3350;DHT22;1688;51.000;13.684;2024-03-29T15:39:17;16.80;86.40
3350;DHT22;1688;51.000;13.684;2024-03-29T15:41:49;16.90;86.40
3350;DHT22;1688;51.000;13.684;2024-03-29T15:44:19;16.90;85.70
3350;DHT22;1688;51.000;13.684;2024-03-29T15:46:49;17.00;85.20
3350;DHT22;1688;51.000;13.684;2024-03-29T15:49:19;17.00;84.80
3350;DHT22;1688;51.000;13.684;2024-03-29T15:51:48;17.10;85.80
3350;DHT22;1688;51.000;13.684;2024-03-29T15:54:18;17.10;84.40
3350;DHT22;1688;51.000;13.684;2024-03-29T15:56:49;17.00;85.10
3350;DHT22;1688;51.000;13.684;2024-03-29T15:59:19;17.00;84.70
3350;DHT22;1688;51.000;13.684;2024-03-29T16:01:52;17.10;85.30
3350;DHT22;1688;51.000;13.684;2024-03-29T16:04:21;17.10;85.00
3350;DHT22;1688;51.000;13.684;2024-03-29T16:06:51;17.10;85.90
3350;DHT22;1688;51.000;13.684;2024-03-29T16:09:20;17.20;86.40
3350;DHT22;1688;51.000;13.684;2024-03-29T16:11:50;17.20;87.90
3350;DHT22;1688;51.000;13.684;2024-03-29T16:14:20;17.20;88.60
3350;DHT22;1688;51.000;13.684;2024-03-29T16:16:51;17.20;87.20
3350;DHT22;1688;51.000;13.684;2024-03-29T16:19:21;17.20;87.20
3350;DHT22;1688;51.000;13.684;2024-03-29T16:21:50;17.20;87.00
3350;DHT22;1688;51.000;13.684;2024-03-29T16:24:20;17.20;86.80
3350;DHT22;1688;51.000;13.684;2024-03-29T16:26:49;17.20;86.40